sensor_id;sensor_type;location;lat;lon;timestamp;pressure;altitude;pressure_sealevel;temperature;humidity
5691;BME280;2870;42.680;23.364;2023-02-20T00:00:33;95419.75;;;11.41;58.87
5691;BME280;2870;42.680;23.364;2023-02-20T00:03:01;95410.72;;;11.28;59.53
5691;BME280;2870;42.680;23.364;2023-02-20T00:05:28;95423.06;;;11.25;59.97
5691;BME280;2870;42.680;23.364;2023-02-20T00:07:55;95415.00;;;11.13;60.29
5691;BME280;2870;42.680;23.364;2023-02-20T00:10:22;95410.28;;;11.01;60.87
5691;BME280;2870;42.680;23.364;2023-02-20T00:12:49;95418.66;;;10.93;61.45
5691;BME280;2870;42.680;23.364;2023-02-20T00:15:17;95434.81;;;11.08;61.31
5691;BME280;2870;42.680;23.364;2023-02-20T00:17:46;95372.09;;;10.54;61.68
5691;BME280;2870;42.680;23.364;2023-02-20T00:20:14;95427.31;;;11.03;61.55
5691;BME280;2870;42.680;23.364;2023-02-20T00:22:41;95420.78;;;11.15;61.43
5691;BME280;2870;42.680;23.364;2023-02-20T00:25:08;95421.84;;;10.97;62.04
5691;BME280;2870;42.680;23.364;2023-02-20T00:27:35;95426.78;;;11.12;61.74
5691;BME280;2870;42.680;23.364;2023-02-20T00:30:03;95422.44;;;11.11;61.72
5691;BME280;2870;42.680;23.364;2023-02-20T00:32:30;95428.44;;;11.07;62.08
5691;BME280;2870;42.680;23.364;2023-02-20T00:34:58;95426.41;;;11.15;61.78
5691;BME280;2870;42.680;23.364;2023-02-20T00:37:25;95418.88;;;10.95;62.40
5691;BME280;2870;42.680;23.364;2023-02-20T00:39:51;95421.19;;;10.76;63.40
5691;BME280;2870;42.680;23.364;2023-02-20T00:42:18;95409.97;;;10.76;63.81
5691;BME280;2870;42.680;23.364;2023-02-20T00:44:45;95409.47;;;10.85;63.45
5691;BME280;2870;42.680;23.364;2023-02-20T00:47:12;95409.38;;;10.70;64.54
5691;BME280;2870;42.680;23.364;2023-02-20T00:49:39;95412.78;;;10.76;63.94
5691;BME280;2870;42.680;23.364;2023-02-20T00:52:07;95415.63;;;10.83;63.73
5691;BME280;2870;42.680;23.364;2023-02-20T00:54:33;95428.69;;;10.73;64.52
5691;BME280;2870;42.680;23.364;2023-02-20T00:57:00;95415.81;;;10.78;64.16
5691;BME280;2870;42.680;23.364;2023-02-20T00:59:27;95430.09;;;10.59;64.82
5691;BME280;2870;42.680;23.364;2023-02-20T01:01:54;95447.78;;;10.46;65.68
5691;BME280;2870;42.680;23.364;2023-02-20T01:04:21;95431.84;;;10.41;66.02
5691;BME280;2870;42.680;23.364;2023-02-20T01:06:47;95448.09;;;10.35;66.29
5691;BME280;2870;42.680;23.364;2023-02-20T01:09:16;95452.47;;;10.44;65.93
5691;BME280;2870;42.680;23.364;2023-02-20T01:11:43;95451.84;;;10.38;66.43
5691;BME280;2870;42.680;23.364;2023-02-20T01:14:11;95459.72;;;10.39;66.44
5691;BME280;2870;42.680;23.364;2023-02-20T01:16:43;95461.06;;;10.46;66.33
5691;BME280;2870;42.680;23.364;2023-02-20T01:19:10;95468.47;;;10.35;66.85
5691;BME280;2870;42.680;23.364;2023-02-20T01:21:37;95474.81;;;10.36;67.02
5691;BME280;2870;42.680;23.364;2023-02-20T01:24:04;95478.22;;;10.42;66.44
5691;BME280;2870;42.680;23.364;2023-02-20T01:26:32;95483.03;;;10.34;66.92
5691;BME280;2870;42.680;23.364;2023-02-20T01:29:00;95491.13;;;10.17;67.51
5691;BME280;2870;42.680;23.364;2023-02-20T01:31:27;95458.78;;;9.95;67.75
5691;BME280;2870;42.680;23.364;2023-02-20T01:33:54;95485.41;;;10.09;68.67
5691;BME280;2870;42.680;23.364;2023-02-20T01:36:21;95483.31;;;10.23;67.85
5691;BME280;2870;42.680;23.364;2023-02-20T01:38:48;95486.31;;;10.25;67.76
5691;BME280;2870;42.680;23.364;2023-02-20T01:41:15;95479.91;;;10.17;68.40
5691;BME280;2870;42.680;23.364;2023-02-20T01:43:44;95484.94;;;10.39;67.58
5691;BME280;2870;42.680;23.364;2023-02-20T01:46:48;95479.25;;;10.52;67.22
5691;BME280;2870;42.680;23.364;2023-02-20T01:49:22;95487.63;;;10.24;68.36
5691;BME280;2870;42.680;23.364;2023-02-20T01:51:54;95482.16;;;10.39;68.49
5691;BME280;2870;42.680;23.364;2023-02-20T01:54:25;95473.00;;;10.39;68.63
5691;BME280;2870;42.680;23.364;2023-02-20T01:56:56;95454.16;;;10.47;68.06
5691;BME280;2870;42.680;23.364;2023-02-20T01:59:27;95488.66;;;10.34;68.91
5691;BME280;2870;42.680;23.364;2023-02-20T02:01:55;95478.69;;;10.54;68.29
5691;BME280;2870;42.680;23.364;2023-02-20T02:04:22;95483.22;;;10.36;68.81
5691;BME280;2870;42.680;23.364;2023-02-20T02:06:51;95488.91;;;10.23;69.89
5691;BME280;2870;42.680;23.364;2023-02-20T02:09:25;95488.44;;;10.60;68.54
5691;BME280;2870;42.680;23.364;2023-02-20T02:11:54;95473.06;;;10.54;69.06
5691;BME280;2870;42.680;23.364;2023-02-20T02:14:21;95490.91;;;10.35;69.44
5691;BME280;2870;42.680;23.364;2023-02-20T02:17:02;95489.41;;;10.34;69.47
5691;BME280;2870;42.680;23.364;2023-02-20T02:19:54;95487.94;;;10.41;69.23
5691;BME280;2870;42.680;23.364;2023-02-20T02:25:42;95495.00;;;10.14;69.46
5691;BME280;2870;42.680;23.364;2023-02-20T02:37:45;95506.47;;;10.02;68.74
5691;BME280;2870;42.680;23.364;2023-02-20T02:40:19;95511.00;;;9.85;68.73
5691;BME280;2870;42.680;23.364;2023-02-20T02:42:54;95498.44;;;9.99;68.03
5691;BME280;2870;42.680;23.364;2023-02-20T02:45:29;95503.84;;;9.76;68.90
5691;BME280;2870;42.680;23.364;2023-02-20T02:48:05;95511.84;;;9.59;69.05
5691;BME280;2870;42.680;23.364;2023-02-20T02:50:36;95507.03;;;9.59;69.33
5691;BME280;2870;42.680;23.364;2023-02-20T02:53:07;95517.06;;;9.54;69.33
5691;BME280;2870;42.680;23.364;2023-02-20T02:55:34;95528.16;;;9.47;69.70
5691;BME280;2870;42.680;23.364;2023-02-20T02:58:02;95522.47;;;9.39;70.04
5691;BME280;2870;42.680;23.364;2023-02-20T03:03:52;95548.72;;;9.49;70.18
5691;BME280;2870;42.680;23.364;2023-02-20T03:06:23;95552.34;;;9.57;70.18
5691;BME280;2870;42.680;23.364;2023-02-20T03:08:58;95545.44;;;9.59;70.09
5691;BME280;2870;42.680;23.364;2023-02-20T03:11:28;95536.66;;;9.41;70.22
5691;BME280;2870;42.680;23.364;2023-02-20T03:14:02;95536.59;;;9.34;71.07
5691;BME280;2870;42.680;23.364;2023-02-20T03:16:52;95540.78;;;9.40;71.24
5691;BME280;2870;42.680;23.364;2023-02-20T03:19:26;95543.38;;;9.38;71.47
5691;BME280;2870;42.680;23.364;2023-02-20T03:21:55;95548.56;;;9.21;71.72
5691;BME280;2870;42.680;23.364;2023-02-20T03:24:25;95547.72;;;8.99;72.29
5691;BME280;2870;42.680;23.364;2023-02-20T03:26:55;95544.06;;;9.05;72.21
5691;BME280;2870;42.680;23.364;2023-02-20T03:29:28;95554.72;;;8.93;72.50
5691;BME280;2870;42.680;23.364;2023-02-20T03:32:00;95567.44;;;8.94;72.66
5691;BME280;2870;42.680;23.364;2023-02-20T03:34:46;95576.22;;;8.85;72.95
5691;BME280;2870;42.680;23.364;2023-02-20T03:37:32;95578.81;;;8.83;72.97
5691;BME280;2870;42.680;23.364;2023-02-20T03:40:20;95570.22;;;8.94;71.97
5691;BME280;2870;42.680;23.364;2023-02-20T03:43:10;95576.34;;;9.19;71.11
5691;BME280;2870;42.680;23.364;2023-02-20T03:45:50;95571.72;;;8.95;71.25
5691;BME280;2870;42.680;23.364;2023-02-20T03:48:20;95577.75;;;8.86;71.58
5691;BME280;2870;42.680;23.364;2023-02-20T03:50:50;95574.22;;;8.98;71.32
5691;BME280;2870;42.680;23.364;2023-02-20T03:53:17;95573.56;;;9.06;70.55
5691;BME280;2870;42.680;23.364;2023-02-20T03:55:46;95566.88;;;8.82;71.38
5691;BME280;2870;42.680;23.364;2023-02-20T03:58:17;95554.19;;;8.81;71.72
5691;BME280;2870;42.680;23.364;2023-02-20T04:00:49;95574.19;;;8.72;71.62
5691;BME280;2870;42.680;23.364;2023-02-20T04:03:21;95571.84;;;8.89;71.33
5691;BME280;2870;42.680;23.364;2023-02-20T04:05:51;95578.06;;;8.82;71.30
5691;BME280;2870;42.680;23.364;2023-02-20T04:08:22;95569.38;;;8.86;70.84
5691;BME280;2870;42.680;23.364;2023-02-20T04:10:56;95576.38;;;8.92;70.72
5691;BME280;2870;42.680;23.364;2023-02-20T04:13:25;95586.06;;;8.91;70.80
5691;BME280;2870;42.680;23.364;2023-02-20T04:15:53;95574.97;;;8.99;69.78
5691;BME280;2870;42.680;23.364;2023-02-20T04:18:20;95584.75;;;8.92;69.93
5691;BME280;2870;42.680;23.364;2023-02-20T04:20:51;95588.00;;;8.96;70.08
5691;BME280;2870;42.680;23.364;2023-02-20T04:23:21;95583.69;;;9.09;69.81
5691;BME280;2870;42.680;23.364;2023-02-20T04:25:52;95590.03;;;8.83;70.46
5691;BME280;2870;42.680;23.364;2023-02-20T04:28:22;95585.28;;;8.77;70.98
5691;BME280;2870;42.680;23.364;2023-02-20T04:30:50;95591.22;;;8.74;71.53
5691;BME280;2870;42.680;23.364;2023-02-20T04:33:19;95588.81;;;8.78;71.41
5691;BME280;2870;42.680;23.364;2023-02-20T04:35:46;95594.22;;;8.89;70.88
5691;BME280;2870;42.680;23.364;2023-02-20T04:38:13;95592.69;;;8.62;71.37
5691;BME280;2870;42.680;23.364;2023-02-20T04:40:39;95587.22;;;8.69;71.42
5691;BME280;2870;42.680;23.364;2023-02-20T04:43:07;95592.38;;;8.65;71.94
5691;BME280;2870;42.680;23.364;2023-02-20T04:45:34;95586.69;;;8.71;71.91
5691;BME280;2870;42.680;23.364;2023-02-20T04:48:01;95590.41;;;8.60;72.20
5691;BME280;2870;42.680;23.364;2023-02-20T04:50:29;95598.16;;;8.67;72.11
5691;BME280;2870;42.680;23.364;2023-02-20T04:52:57;95594.75;;;8.74;71.43
5691;BME280;2870;42.680;23.364;2023-02-20T04:55:24;95609.47;;;8.62;71.38
5691;BME280;2870;42.680;23.364;2023-02-20T04:57:52;95616.56;;;8.63;71.12
5691;BME280;2870;42.680;23.364;2023-02-20T05:00:23;95608.50;;;8.72;70.18
5691;BME280;2870;42.680;23.364;2023-02-20T05:02:50;95620.22;;;8.58;69.52
5691;BME280;2870;42.680;23.364;2023-02-20T05:05:19;95621.97;;;8.74;69.51
5691;BME280;2870;42.680;23.364;2023-02-20T05:07:47;95638.19;;;8.62;68.98
5691;BME280;2870;42.680;23.364;2023-02-20T05:10:17;95625.63;;;8.69;68.16
5691;BME280;2870;42.680;23.364;2023-02-20T05:12:44;95626.44;;;8.50;67.05
5691;BME280;2870;42.680;23.364;2023-02-20T05:15:12;95631.16;;;8.56;66.59
5691;BME280;2870;42.680;23.364;2023-02-20T05:17:41;95635.84;;;8.34;67.16
5691;BME280;2870;42.680;23.364;2023-02-20T05:20:08;95629.34;;;8.26;66.45
5691;BME280;2870;42.680;23.364;2023-02-20T05:22:35;95639.78;;;8.58;64.91
5691;BME280;2870;42.680;23.364;2023-02-20T05:25:01;95623.44;;;8.30;65.49
5691;BME280;2870;42.680;23.364;2023-02-20T05:27:28;95631.41;;;8.58;64.95
5691;BME280;2870;42.680;23.364;2023-02-20T05:29:57;95637.75;;;8.58;65.03
5691;BME280;2870;42.680;23.364;2023-02-20T05:32:26;95647.81;;;8.80;63.57
5691;BME280;2870;42.680;23.364;2023-02-20T05:34:55;95656.03;;;8.59;64.07
5691;BME280;2870;42.680;23.364;2023-02-20T05:37:23;95674.09;;;8.58;64.48
5691;BME280;2870;42.680;23.364;2023-02-20T05:39:50;95680.56;;;8.34;65.16
5691;BME280;2870;42.680;23.364;2023-02-20T05:42:18;95670.16;;;8.16;66.17
5691;BME280;2870;42.680;23.364;2023-02-20T05:44:45;95676.09;;;8.26;66.25
5691;BME280;2870;42.680;23.364;2023-02-20T05:47:14;95673.97;;;8.32;66.28
5691;BME280;2870;42.680;23.364;2023-02-20T05:49:40;95676.03;;;8.31;66.86
5691;BME280;2870;42.680;23.364;2023-02-20T05:52:10;95682.50;;;8.58;66.45
5691;BME280;2870;42.680;23.364;2023-02-20T05:54:38;95673.91;;;8.37;66.37
5691;BME280;2870;42.680;23.364;2023-02-20T05:57:06;95678.81;;;8.31;67.56
5691;BME280;2870;42.680;23.364;2023-02-20T05:59:33;95671.16;;;8.50;67.03
5691;BME280;2870;42.680;23.364;2023-02-20T06:02:00;95662.69;;;8.56;67.07
5691;BME280;2870;42.680;23.364;2023-02-20T06:04:28;95678.09;;;8.63;67.20
5691;BME280;2870;42.680;23.364;2023-02-20T06:06:55;95674.97;;;8.34;67.56
5691;BME280;2870;42.680;23.364;2023-02-20T06:09:23;95677.88;;;8.61;67.01
5691;BME280;2870;42.680;23.364;2023-02-20T06:11:51;95682.13;;;8.48;67.37
5691;BME280;2870;42.680;23.364;2023-02-20T06:14:19;95666.00;;;8.41;66.76
5691;BME280;2870;42.680;23.364;2023-02-20T06:16:46;95674.94;;;8.85;65.38
5691;BME280;2870;42.680;23.364;2023-02-20T06:19:17;95689.22;;;8.82;62.60
5691;BME280;2870;42.680;23.364;2023-02-20T06:21:46;95696.38;;;9.09;62.04
5691;BME280;2870;42.680;23.364;2023-02-20T06:24:13;95694.13;;;9.08;61.01
5691;BME280;2870;42.680;23.364;2023-02-20T06:26:43;95705.22;;;9.26;59.90
5691;BME280;2870;42.680;23.364;2023-02-20T06:29:11;95709.75;;;9.43;59.33
5691;BME280;2870;42.680;23.364;2023-02-20T06:31:38;95711.13;;;9.63;59.56
5691;BME280;2870;42.680;23.364;2023-02-20T06:34:06;95718.03;;;9.62;58.73
5691;BME280;2870;42.680;23.364;2023-02-20T06:36:35;95711.81;;;9.42;58.60
5691;BME280;2870;42.680;23.364;2023-02-20T06:39:03;95709.22;;;9.71;58.87
5691;BME280;2870;42.680;23.364;2023-02-20T06:41:30;95699.81;;;9.81;58.38
5691;BME280;2870;42.680;23.364;2023-02-20T06:43:58;95700.50;;;10.22;56.91
5691;BME280;2870;42.680;23.364;2023-02-20T06:46:25;95708.06;;;10.27;55.51
5691;BME280;2870;42.680;23.364;2023-02-20T06:48:53;95712.44;;;10.35;55.52
5691;BME280;2870;42.680;23.364;2023-02-20T06:51:22;95718.44;;;10.05;55.54
5691;BME280;2870;42.680;23.364;2023-02-20T06:53:49;95708.28;;;10.02;56.57
5691;BME280;2870;42.680;23.364;2023-02-20T06:56:18;95715.56;;;10.32;55.76
5691;BME280;2870;42.680;23.364;2023-02-20T06:58:46;95715.34;;;9.82;56.83
5691;BME280;2870;42.680;23.364;2023-02-20T07:01:15;95720.72;;;9.67;57.45
5691;BME280;2870;42.680;23.364;2023-02-20T07:03:42;95718.97;;;9.91;56.30
5691;BME280;2870;42.680;23.364;2023-02-20T07:06:09;95721.16;;;10.45;54.90
5691;BME280;2870;42.680;23.364;2023-02-20T07:08:36;95714.50;;;10.35;53.69
5691;BME280;2870;42.680;23.364;2023-02-20T07:11:03;95710.38;;;10.91;52.90
5691;BME280;2870;42.680;23.364;2023-02-20T07:13:30;95717.19;;;11.03;51.79
5691;BME280;2870;42.680;23.364;2023-02-20T07:15:57;95726.13;;;11.23;50.67
5691;BME280;2870;42.680;23.364;2023-02-20T07:18:25;95718.72;;;11.33;50.95
5691;BME280;2870;42.680;23.364;2023-02-20T07:20:52;95722.16;;;11.39;49.99
5691;BME280;2870;42.680;23.364;2023-02-20T07:23:19;95736.50;;;11.56;49.31
5691;BME280;2870;42.680;23.364;2023-02-20T07:25:46;95734.19;;;12.04;48.26
5691;BME280;2870;42.680;23.364;2023-02-20T07:28:14;95738.69;;;12.07;46.79
5691;BME280;2870;42.680;23.364;2023-02-20T07:30:42;95735.44;;;12.32;46.70
5691;BME280;2870;42.680;23.364;2023-02-20T07:33:09;95749.16;;;11.99;46.80
5691;BME280;2870;42.680;23.364;2023-02-20T07:35:37;95749.28;;;11.86;46.22
5691;BME280;2870;42.680;23.364;2023-02-20T07:38:04;95745.31;;;11.11;47.92
5691;BME280;2870;42.680;23.364;2023-02-20T07:40:31;95743.97;;;10.83;47.86
5691;BME280;2870;42.680;23.364;2023-02-20T07:42:57;95748.38;;;10.24;49.30
5691;BME280;2870;42.680;23.364;2023-02-20T07:45:24;95762.41;;;10.58;49.15
5691;BME280;2870;42.680;23.364;2023-02-20T07:47:51;95762.88;;;11.25;48.44
5691;BME280;2870;42.680;23.364;2023-02-20T07:50:18;95773.72;;;10.66;48.63
5691;BME280;2870;42.680;23.364;2023-02-20T07:52:46;95767.25;;;11.12;47.28
5691;BME280;2870;42.680;23.364;2023-02-20T07:55:14;95779.31;;;11.21;46.69
5691;BME280;2870;42.680;23.364;2023-02-20T07:57:41;95769.00;;;11.44;46.38
5691;BME280;2870;42.680;23.364;2023-02-20T08:00:12;95774.59;;;11.86;46.46
5691;BME280;2870;42.680;23.364;2023-02-20T08:02:39;95780.84;;;11.79;46.02
5691;BME280;2870;42.680;23.364;2023-02-20T08:05:05;95774.66;;;11.02;46.51
5691;BME280;2870;42.680;23.364;2023-02-20T08:07:32;95785.25;;;10.96;46.81
5691;BME280;2870;42.680;23.364;2023-02-20T08:10:00;95778.69;;;11.14;47.21
5691;BME280;2870;42.680;23.364;2023-02-20T08:12:27;95775.81;;;10.86;46.79
5691;BME280;2870;42.680;23.364;2023-02-20T08:14:54;95786.09;;;10.23;48.36
5691;BME280;2870;42.680;23.364;2023-02-20T08:17:21;95776.88;;;10.83;46.98
5691;BME280;2870;42.680;23.364;2023-02-20T08:19:47;95773.19;;;10.67;47.54
5691;BME280;2870;42.680;23.364;2023-02-20T08:22:14;95781.28;;;10.92;46.87
5691;BME280;2870;42.680;23.364;2023-02-20T08:24:41;95791.50;;;10.34;47.25
5691;BME280;2870;42.680;23.364;2023-02-20T08:27:09;95780.94;;;10.14;48.18
5691;BME280;2870;42.680;23.364;2023-02-20T08:29:36;95777.25;;;10.66;47.53
5691;BME280;2870;42.680;23.364;2023-02-20T08:32:03;95771.88;;;10.89;47.16
5691;BME280;2870;42.680;23.364;2023-02-20T08:34:30;95778.22;;;11.24;45.49
5691;BME280;2870;42.680;23.364;2023-02-20T08:36:57;95785.38;;;11.53;44.90
5691;BME280;2870;42.680;23.364;2023-02-20T08:39:23;95769.69;;;11.37;45.17
5691;BME280;2870;42.680;23.364;2023-02-20T08:41:51;95765.53;;;11.30;46.27
5691;BME280;2870;42.680;23.364;2023-02-20T08:44:19;95774.22;;;10.98;46.19
5691;BME280;2870;42.680;23.364;2023-02-20T08:46:48;95787.06;;;11.07;45.57
5691;BME280;2870;42.680;23.364;2023-02-20T08:49:16;95775.56;;;11.18;44.78
5691;BME280;2870;42.680;23.364;2023-02-20T08:51:44;95784.31;;;11.35;44.71
5691;BME280;2870;42.680;23.364;2023-02-20T08:54:10;95782.25;;;12.22;44.21
5691;BME280;2870;42.680;23.364;2023-02-20T08:56:38;95781.69;;;12.23;42.90
5691;BME280;2870;42.680;23.364;2023-02-20T08:59:04;95778.06;;;13.48;40.02
5691;BME280;2870;42.680;23.364;2023-02-20T09:01:33;95781.75;;;14.12;39.59
5691;BME280;2870;42.680;23.364;2023-02-20T09:04:00;95774.72;;;14.28;38.26
5691;BME280;2870;42.680;23.364;2023-02-20T09:06:27;95769.41;;;13.69;39.22
5691;BME280;2870;42.680;23.364;2023-02-20T09:08:54;95770.69;;;14.62;37.89
5691;BME280;2870;42.680;23.364;2023-02-20T09:11:20;95767.41;;;15.38;36.38
5691;BME280;2870;42.680;23.364;2023-02-20T09:13:47;95772.19;;;15.78;35.25
5691;BME280;2870;42.680;23.364;2023-02-20T09:16:17;95772.69;;;16.36;34.64
5691;BME280;2870;42.680;23.364;2023-02-20T09:18:46;95775.28;;;16.07;34.83
5691;BME280;2870;42.680;23.364;2023-02-20T09:21:15;95770.47;;;16.97;33.52
5691;BME280;2870;42.680;23.364;2023-02-20T09:23:43;95763.81;;;15.38;35.27
5691;BME280;2870;42.680;23.364;2023-02-20T09:26:10;95767.84;;;14.62;36.10
5691;BME280;2870;42.680;23.364;2023-02-20T09:28:37;95776.94;;;15.93;35.09
5691;BME280;2870;42.680;23.364;2023-02-20T09:31:04;95773.88;;;17.22;33.54
5691;BME280;2870;42.680;23.364;2023-02-20T09:33:31;95768.91;;;17.77;33.35
5691;BME280;2870;42.680;23.364;2023-02-20T09:36:00;95777.16;;;18.01;31.81
5691;BME280;2870;42.680;23.364;2023-02-20T09:38:27;95775.53;;;18.18;31.80
5691;BME280;2870;42.680;23.364;2023-02-20T09:40:56;95779.69;;;17.88;32.10
5691;BME280;2870;42.680;23.364;2023-02-20T09:43:31;95771.75;;;17.49;33.19
5691;BME280;2870;42.680;23.364;2023-02-20T09:46:05;95773.09;;;16.85;34.07
5691;BME280;2870;42.680;23.364;2023-02-20T09:48:46;95769.81;;;17.15;33.63
5691;BME280;2870;42.680;23.364;2023-02-20T09:51:18;95778.50;;;17.64;33.38
5691;BME280;2870;42.680;23.364;2023-02-20T09:53:51;95782.19;;;17.84;32.95
5691;BME280;2870;42.680;23.364;2023-02-20T09:56:24;95775.66;;;15.69;35.70
5691;BME280;2870;42.680;23.364;2023-02-20T09:58:57;95784.66;;;16.97;33.90
5691;BME280;2870;42.680;23.364;2023-02-20T10:01:25;95788.19;;;17.24;32.96
5691;BME280;2870;42.680;23.364;2023-02-20T10:03:54;95787.09;;;17.46;32.78
5691;BME280;2870;42.680;23.364;2023-02-20T10:06:28;95777.38;;;16.07;34.26
5691;BME280;2870;42.680;23.364;2023-02-20T10:08:55;95777.41;;;17.13;33.65
5691;BME280;2870;42.680;23.364;2023-02-20T10:11:35;95764.06;;;16.34;33.38
5691;BME280;2870;42.680;23.364;2023-02-20T10:14:28;95774.53;;;17.30;32.16
5691;BME280;2870;42.680;23.364;2023-02-20T10:17:06;95762.94;;;17.45;31.81
5691;BME280;2870;42.680;23.364;2023-02-20T10:19:39;95762.50;;;16.85;33.13
5691;BME280;2870;42.680;23.364;2023-02-20T10:22:14;95765.91;;;17.11;32.05
5691;BME280;2870;42.680;23.364;2023-02-20T10:24:51;95759.56;;;17.20;32.61
5691;BME280;2870;42.680;23.364;2023-02-20T10:27:29;95748.28;;;17.03;32.67
5691;BME280;2870;42.680;23.364;2023-02-20T10:29:57;95739.41;;;16.10;32.94
5691;BME280;2870;42.680;23.364;2023-02-20T10:32:30;95747.16;;;16.88;32.58
5691;BME280;2870;42.680;23.364;2023-02-20T10:35:00;95740.06;;;17.07;31.60
5691;BME280;2870;42.680;23.364;2023-02-20T10:37:34;95747.81;;;17.33;31.49
5691;BME280;2870;42.680;23.364;2023-02-20T10:40:08;95732.84;;;16.69;31.32
5691;BME280;2870;42.680;23.364;2023-02-20T10:42:41;95743.06;;;17.36;31.29
5691;BME280;2870;42.680;23.364;2023-02-20T10:45:13;95746.28;;;17.22;30.92
5691;BME280;2870;42.680;23.364;2023-02-20T10:47:45;95738.75;;;16.19;32.31
5691;BME280;2870;42.680;23.364;2023-02-20T10:50:21;95737.94;;;16.71;31.68
5691;BME280;2870;42.680;23.364;2023-02-20T10:52:53;95736.63;;;17.72;31.65
5691;BME280;2870;42.680;23.364;2023-02-20T10:55:25;95736.72;;;17.64;30.67
5691;BME280;2870;42.680;23.364;2023-02-20T10:57:57;95729.94;;;16.77;31.49
5691;BME280;2870;42.680;23.364;2023-02-20T11:00:31;95734.69;;;17.38;31.56
5691;BME280;2870;42.680;23.364;2023-02-20T11:03:03;95707.38;;;15.90;32.67
5691;BME280;2870;42.680;23.364;2023-02-20T11:05:35;95717.75;;;16.22;32.67
5691;BME280;2870;42.680;23.364;2023-02-20T11:08:05;95723.75;;;16.26;32.77
5691;BME280;2870;42.680;23.364;2023-02-20T11:10:32;95703.59;;;16.05;32.59
5691;BME280;2870;42.680;23.364;2023-02-20T11:13:00;95710.00;;;16.67;32.60
5691;BME280;2870;42.680;23.364;2023-02-20T11:15:31;95706.25;;;16.37;32.77
5691;BME280;2870;42.680;23.364;2023-02-20T11:18:04;95697.28;;;15.79;33.87
5691;BME280;2870;42.680;23.364;2023-02-20T11:20:43;95695.81;;;15.53;34.00
5691;BME280;2870;42.680;23.364;2023-02-20T11:26:32;95695.31;;;14.72;36.32
5691;BME280;2870;42.680;23.364;2023-02-20T11:29:05;95686.78;;;14.80;36.06
5691;BME280;2870;42.680;23.364;2023-02-20T11:31:37;95691.09;;;14.89;35.83
5691;BME280;2870;42.680;23.364;2023-02-20T11:34:05;95686.91;;;15.40;34.90
5691;BME280;2870;42.680;23.364;2023-02-20T11:36:42;95686.88;;;14.97;35.83
5691;BME280;2870;42.680;23.364;2023-02-20T11:39:19;95685.16;;;14.37;36.12
5691;BME280;2870;42.680;23.364;2023-02-20T11:41:52;95688.88;;;14.79;35.74
5691;BME280;2870;42.680;23.364;2023-02-20T11:44:29;95697.09;;;14.93;35.63
5691;BME280;2870;42.680;23.364;2023-02-20T11:47:21;95681.22;;;14.97;35.62
5691;BME280;2870;42.680;23.364;2023-02-20T11:49:49;95683.22;;;15.29;35.29
5691;BME280;2870;42.680;23.364;2023-02-20T11:52:33;95674.03;;;14.39;36.57
5691;BME280;2870;42.680;23.364;2023-02-20T11:55:09;95673.78;;;14.19;37.00
5691;BME280;2870;42.680;23.364;2023-02-20T11:57:42;95677.44;;;14.37;36.62
5691;BME280;2870;42.680;23.364;2023-02-20T12:00:12;95676.41;;;14.57;36.20
5691;BME280;2870;42.680;23.364;2023-02-20T12:02:53;95676.16;;;14.71;36.10
5691;BME280;2870;42.680;23.364;2023-02-20T12:05:21;95668.06;;;14.27;36.79
5691;BME280;2870;42.680;23.364;2023-02-20T12:08:01;95669.78;;;14.30;36.45
5691;BME280;2870;42.680;23.364;2023-02-20T12:10:34;95674.41;;;14.43;36.27
5691;BME280;2870;42.680;23.364;2023-02-20T12:13:06;95671.75;;;14.45;36.14
5691;BME280;2870;42.680;23.364;2023-02-20T12:15:36;95669.25;;;14.16;36.55
5691;BME280;2870;42.680;23.364;2023-02-20T12:18:21;95655.34;;;14.11;36.73
5691;BME280;2870;42.680;23.364;2023-02-20T12:20:57;95672.91;;;14.42;35.86
5691;BME280;2870;42.680;23.364;2023-02-20T12:23:35;95684.84;;;14.25;36.43
5691;BME280;2870;42.680;23.364;2023-02-20T12:26:13;95676.28;;;14.00;36.40
5691;BME280;2870;42.680;23.364;2023-02-20T12:28:52;95680.91;;;14.20;36.31
5691;BME280;2870;42.680;23.364;2023-02-20T12:31:32;95689.84;;;14.42;36.14
5691;BME280;2870;42.680;23.364;2023-02-20T12:34:12;95693.16;;;14.15;36.44
5691;BME280;2870;42.680;23.364;2023-02-20T12:36:48;95678.66;;;14.19;36.89
5691;BME280;2870;42.680;23.364;2023-02-20T12:39:24;95681.38;;;14.42;36.05
5691;BME280;2870;42.680;23.364;2023-02-20T12:42:04;95668.78;;;13.95;36.77
5691;BME280;2870;42.680;23.364;2023-02-20T12:44:45;95665.81;;;13.77;37.25
5691;BME280;2870;42.680;23.364;2023-02-20T12:47:19;95664.03;;;14.05;36.94
5691;BME280;2870;42.680;23.364;2023-02-20T12:53:03;95665.91;;;14.10;36.72
5691;BME280;2870;42.680;23.364;2023-02-20T12:55:38;95664.78;;;14.05;36.29
5691;BME280;2870;42.680;23.364;2023-02-20T12:58:27;95664.44;;;13.94;36.62
5691;BME280;2870;42.680;23.364;2023-02-20T13:00:59;95655.41;;;13.95;36.52
5691;BME280;2870;42.680;23.364;2023-02-20T13:03:37;95668.97;;;13.97;36.36
5691;BME280;2870;42.680;23.364;2023-02-20T13:06:05;95677.06;;;14.33;36.38
5691;BME280;2870;42.680;23.364;2023-02-20T13:08:36;95669.25;;;14.56;35.89
5691;BME280;2870;42.680;23.364;2023-02-20T13:11:11;95686.38;;;14.58;35.93
5691;BME280;2870;42.680;23.364;2023-02-20T13:13:48;95687.22;;;14.36;36.39
5691;BME280;2870;42.680;23.364;2023-02-20T13:16:22;95680.16;;;14.60;35.87
5691;BME280;2870;42.680;23.364;2023-02-20T13:18:54;95681.38;;;14.74;35.66
5691;BME280;2870;42.680;23.364;2023-02-20T13:21:24;95682.09;;;14.50;36.25
5691;BME280;2870;42.680;23.364;2023-02-20T13:24:11;95679.22;;;14.57;36.27
5691;BME280;2870;42.680;23.364;2023-02-20T13:26:52;95680.25;;;14.37;36.48
5691;BME280;2870;42.680;23.364;2023-02-20T13:29:22;95688.50;;;14.02;36.88
5691;BME280;2870;42.680;23.364;2023-02-20T13:31:54;95677.81;;;14.33;36.54
5691;BME280;2870;42.680;23.364;2023-02-20T13:34:33;95702.31;;;14.23;37.34
5691;BME280;2870;42.680;23.364;2023-02-20T13:37:01;95697.97;;;13.90;37.50
5691;BME280;2870;42.680;23.364;2023-02-20T13:39:39;95701.94;;;14.27;37.31
5691;BME280;2870;42.680;23.364;2023-02-20T13:45:01;95703.31;;;14.18;37.28
5691;BME280;2870;42.680;23.364;2023-02-20T13:47:38;95704.00;;;14.26;37.67
5691;BME280;2870;42.680;23.364;2023-02-20T13:50:30;95709.53;;;14.90;36.63
5691;BME280;2870;42.680;23.364;2023-02-20T13:53:04;95705.19;;;14.64;36.93
5691;BME280;2870;42.680;23.364;2023-02-20T13:55:31;95689.53;;;14.30;37.08
5691;BME280;2870;42.680;23.364;2023-02-20T13:58:13;95688.09;;;14.06;37.64